createdAt,value
2018-09-10T00:00:28.740Z,13.40
2018-09-10T00:02:57.015Z,13.40
2018-09-10T00:05:25.329Z,13.40
2018-09-10T00:07:53.749Z,13.40
2018-09-10T00:10:22.356Z,13.30
2018-09-10T00:12:50.605Z,13.30
2018-09-10T00:15:18.944Z,13.30
2018-09-10T00:17:47.279Z,13.30
2018-09-10T00:20:15.618Z,13.30
2018-09-10T00:22:43.999Z,13.30
2018-09-10T00:25:12.360Z,13.30
2018-09-10T00:27:40.739Z,13.20
2018-09-10T00:30:09.086Z,13.20
2018-09-10T00:32:37.411Z,13.10
2018-09-10T00:35:06.513Z,13.20
2018-09-10T00:37:35.674Z,13.10
2018-09-10T00:40:04.000Z,13.00
2018-09-10T00:42:32.371Z,13.00
2018-09-10T00:45:00.793Z,13.00
2018-09-10T00:47:29.144Z,13.00
2018-09-10T00:49:57.547Z,12.90
2018-09-10T00:52:25.881Z,12.90
2018-09-10T00:54:54.212Z,12.90
2018-09-10T00:57:22.487Z,12.80
2018-09-10T00:59:50.763Z,12.80
2018-09-10T01:02:19.988Z,12.80
2018-09-10T01:04:48.366Z,12.70
2018-09-10T01:07:16.634Z,12.70
2018-09-10T01:09:44.916Z,12.60
2018-09-10T01:12:13.160Z,12.60
2018-09-10T01:14:41.433Z,12.60
2018-09-10T01:17:09.719Z,12.50
2018-09-10T01:19:38.077Z,12.60
2018-09-10T01:22:06.986Z,12.50
2018-09-10T01:24:35.359Z,12.50
2018-09-10T01:27:03.764Z,12.40
2018-09-10T01:29:32.031Z,12.40
2018-09-10T01:32:00.459Z,12.40
2018-09-10T01:34:41.732Z,12.40
2018-09-10T01:37:12.038Z,12.40
2018-09-10T01:39:46.637Z,12.30
2018-09-10T01:42:14.932Z,12.40
2018-09-10T01:44:43.211Z,12.30
2018-09-10T01:47:11.567Z,12.30
2018-09-10T01:49:39.882Z,12.30
2018-09-10T01:52:08.241Z,12.30
2018-09-10T01:54:36.521Z,12.20
2018-09-10T01:57:05.907Z,12.30
2018-09-10T01:59:34.262Z,12.20
2018-09-10T02:02:02.676Z,12.20
2018-09-10T02:04:31.007Z,12.20
2018-09-10T02:06:59.249Z,12.30
2018-09-10T02:09:27.602Z,12.30
2018-09-10T02:11:55.887Z,12.30
2018-09-10T02:14:27.669Z,12.40
2018-09-10T02:16:55.922Z,12.60
2018-09-10T02:19:24.250Z,12.60
2018-09-10T02:21:52.622Z,12.70
2018-09-10T02:24:21.011Z,12.80
2018-09-10T02:26:49.339Z,12.80
2018-09-10T02:29:17.648Z,12.80
2018-09-10T02:31:46.061Z,12.90
2018-09-10T02:34:14.452Z,13.00
2018-09-10T02:36:42.811Z,13.00
2018-09-10T02:39:11.155Z,13.00
2018-09-10T02:41:42.648Z,13.10
2018-09-10T02:44:11.789Z,13.10
2018-09-10T02:46:40.108Z,13.10
2018-09-10T02:49:08.483Z,13.20
2018-09-10T02:51:37.073Z,13.20
2018-09-10T02:54:05.452Z,13.30
2018-09-10T02:56:33.811Z,13.30
2018-09-10T02:59:02.208Z,13.30
2018-09-10T03:01:30.875Z,13.40
2018-09-10T03:03:59.134Z,13.40
2018-09-10T03:06:27.442Z,13.40
2018-09-10T03:08:55.782Z,13.40
2018-09-10T03:11:24.088Z,13.30
2018-09-10T03:13:52.320Z,13.30
2018-09-10T03:16:20.646Z,13.30
2018-09-10T03:18:48.986Z,13.30
2018-09-10T03:21:17.258Z,13.30
2018-09-10T03:23:45.565Z,13.40
2018-09-10T03:26:13.851Z,13.30
2018-09-10T03:28:42.139Z,13.40
2018-09-10T03:31:10.489Z,13.50
2018-09-10T03:33:38.938Z,13.40
2018-09-10T03:36:08.325Z,13.40
2018-09-10T03:38:36.713Z,13.30
2018-09-10T03:41:05.061Z,13.20
2018-09-10T03:43:33.457Z,13.00
2018-09-10T03:46:02.799Z,13.00
2018-09-10T03:48:31.107Z,13.00
2018-09-10T03:50:59.408Z,12.90
2018-09-10T03:53:27.797Z,12.80
2018-09-10T03:55:56.674Z,12.70
2018-09-10T03:58:25.051Z,12.70
2018-09-10T04:00:58.791Z,12.70
2018-09-10T04:03:32.801Z,12.60
2018-09-10T04:06:08.342Z,12.60
2018-09-10T04:08:36.807Z,12.50
2018-09-10T04:11:05.240Z,12.60
2018-09-10T04:13:34.634Z,12.60
2018-09-10T04:16:02.958Z,12.60
2018-09-10T04:18:31.399Z,12.60
2018-09-10T04:20:59.690Z,12.70
2018-09-10T04:23:27.979Z,12.80
2018-09-10T04:25:56.278Z,12.80
2018-09-10T04:28:24.765Z,12.80
2018-09-10T04:30:53.084Z,12.90
2018-09-10T04:33:21.387Z,12.90
2018-09-10T04:35:49.684Z,13.00
2018-09-10T04:38:18.061Z,13.00
2018-09-10T04:40:46.439Z,13.00
2018-09-10T04:43:14.809Z,13.00
2018-09-10T04:45:43.085Z,13.10
2018-09-10T04:48:11.343Z,13.20
2018-09-10T04:50:40.733Z,13.30
2018-09-10T04:53:09.105Z,13.30
2018-09-10T04:55:43.083Z,13.40
2018-09-10T04:58:11.473Z,13.40
2018-09-10T05:00:39.847Z,13.50
2018-09-10T05:03:08.174Z,13.60
2018-09-10T05:05:36.526Z,13.70
2018-09-10T05:08:05.012Z,13.90
2018-09-10T05:10:33.313Z,14.20
2018-09-10T05:13:03.045Z,14.30
2018-09-10T05:15:31.282Z,14.30
2018-09-10T05:17:59.627Z,14.40
2018-09-10T05:20:27.962Z,14.50
2018-09-10T05:22:56.291Z,14.60
2018-09-10T05:25:24.590Z,14.80
2018-09-10T05:27:52.980Z,15.20
2018-09-10T05:30:21.288Z,15.70
2018-09-10T05:32:50.126Z,15.80
2018-09-10T05:35:18.590Z,15.90
2018-09-10T05:37:46.901Z,16.10
2018-09-10T05:40:15.200Z,16.20
2018-09-10T05:42:43.592Z,16.30
2018-09-10T05:45:12.559Z,16.30
2018-09-10T05:47:41.391Z,16.30
2018-09-10T05:50:10.769Z,16.20
2018-09-10T05:52:39.172Z,15.90
2018-09-10T05:55:07.550Z,15.70
2018-09-10T05:57:35.928Z,15.60
2018-09-10T06:00:04.522Z,15.60
2018-09-10T06:02:32.899Z,15.60
2018-09-10T06:05:01.259Z,15.70
2018-09-10T06:07:29.524Z,15.70
2018-09-10T06:09:57.876Z,15.90
2018-09-10T06:12:26.208Z,16.00
2018-09-10T06:14:54.909Z,16.00
2018-09-10T06:17:23.317Z,16.10
2018-09-10T06:19:52.088Z,16.00
2018-09-10T06:22:20.842Z,16.00
2018-09-10T06:24:49.194Z,16.40
2018-09-10T06:27:18.547Z,17.10
2018-09-10T06:29:46.896Z,17.60
2018-09-10T06:32:15.216Z,18.00
2018-09-10T06:34:43.552Z,18.90
2018-09-10T06:37:11.857Z,19.90
2018-09-10T06:39:40.280Z,21.10
2018-09-10T06:42:08.557Z,21.70
2018-09-10T06:44:36.889Z,22.10
2018-09-10T06:47:05.296Z,23.00
2018-09-10T06:49:33.630Z,22.70
2018-09-10T06:52:01.927Z,21.70
2018-09-10T06:54:30.348Z,21.50
2018-09-10T06:56:58.679Z,22.10
2018-09-10T06:59:27.061Z,22.60
2018-09-10T07:01:55.420Z,22.50
2018-09-10T07:04:23.744Z,22.40
2018-09-10T07:06:52.412Z,22.40
2018-09-10T07:09:21.003Z,22.30
2018-09-10T07:11:49.359Z,22.20
2018-09-10T07:14:17.731Z,22.10
2018-09-10T07:16:46.052Z,22.40
2018-09-10T07:19:15.419Z,23.50
2018-09-10T07:21:43.711Z,24.80
2018-09-10T07:24:12.144Z,25.60
2018-09-10T07:26:40.469Z,25.20
2018-09-10T07:29:08.899Z,25.00
2018-09-10T07:31:37.330Z,25.70
2018-09-10T07:34:05.760Z,27.00
2018-09-10T07:36:41.365Z,28.10
2018-09-10T07:39:11.045Z,28.10
2018-09-10T07:41:41.307Z,27.70
2018-09-10T07:44:11.030Z,27.80
2018-09-10T07:46:39.405Z,28.00
2018-09-10T07:49:07.873Z,27.80
2018-09-10T07:51:36.443Z,28.20
2018-09-10T07:54:05.175Z,28.20
2018-09-10T07:56:34.031Z,28.30
2018-09-10T07:59:02.490Z,28.20
2018-09-10T08:01:30.785Z,28.00
2018-09-10T08:03:59.247Z,27.90
2018-09-10T08:06:27.656Z,27.60
2018-09-10T08:08:56.113Z,27.20
2018-09-10T08:11:24.912Z,27.30
2018-09-10T08:13:53.358Z,28.40
2018-09-10T08:16:22.726Z,28.60
2018-09-10T08:18:51.356Z,29.80
2018-09-10T08:21:19.797Z,30.60
2018-09-10T08:23:48.236Z,31.00
2018-09-10T08:26:17.890Z,30.80
2018-09-10T08:28:46.312Z,30.70
2018-09-10T08:31:14.642Z,30.50
2018-09-10T08:33:42.999Z,30.60
2018-09-10T08:36:12.045Z,30.30
2018-09-10T08:38:40.397Z,30.50
2018-09-10T08:41:08.817Z,30.10
2018-09-10T08:43:37.211Z,30.00
2018-09-10T08:46:05.546Z,29.90
2018-09-10T08:48:34.908Z,29.80
2018-09-10T08:51:03.332Z,29.80
2018-09-10T08:53:32.670Z,29.90
2018-09-10T08:56:01.146Z,29.50
2018-09-10T08:58:34.111Z,29.90
2018-09-10T09:01:02.489Z,29.90
2018-09-10T09:03:30.821Z,29.90
2018-09-10T09:05:59.243Z,30.90
2018-09-10T09:08:27.707Z,31.40
2018-09-10T09:10:56.071Z,30.70
2018-09-10T09:13:24.462Z,30.20
2018-09-10T09:15:52.747Z,29.10
2018-09-10T09:18:22.122Z,28.70
2018-09-10T09:20:50.515Z,28.30
2018-09-10T09:23:19.030Z,28.00
2018-09-10T09:25:47.328Z,27.80
2018-09-10T09:28:15.708Z,28.00
2018-09-10T09:30:44.037Z,27.70
2018-09-10T09:33:12.384Z,27.40
2018-09-10T09:35:47.401Z,27.30
2018-09-10T09:38:21.070Z,27.30
2018-09-10T09:40:54.822Z,27.20
2018-09-10T09:45:36.709Z,27.00
2018-09-10T09:48:05.041Z,27.00
2018-09-10T09:50:33.419Z,26.90
2018-09-10T09:53:01.810Z,26.90
2018-09-10T09:55:30.237Z,26.80
2018-09-10T09:57:58.518Z,26.60
2018-09-10T10:01:30.937Z,26.70
2018-09-10T10:04:03.623Z,26.40
2018-09-10T10:06:32.008Z,26.40
2018-09-10T10:09:00.455Z,26.50
2018-09-10T10:11:28.849Z,26.50
2018-09-10T10:13:58.126Z,26.20
2018-09-10T10:16:28.176Z,26.40
2018-09-10T10:18:56.679Z,26.60
2018-09-10T10:21:25.021Z,26.80
2018-09-10T10:23:53.592Z,26.80
2018-09-10T10:26:21.865Z,26.60
2018-09-10T10:28:50.464Z,26.80
2018-09-10T10:31:18.980Z,27.30
2018-09-10T10:33:47.408Z,27.60
2018-09-10T10:36:15.725Z,27.80
2018-09-10T10:38:44.098Z,28.20
2018-09-10T10:41:12.493Z,28.30
2018-09-10T10:43:40.930Z,28.90
2018-09-10T10:46:09.299Z,28.80
2018-09-10T10:48:37.643Z,28.70
2018-09-10T10:51:06.043Z,28.60
2018-09-10T10:53:34.420Z,28.50
2018-09-10T10:56:02.770Z,28.10
2018-09-10T10:58:33.159Z,27.60
2018-09-10T11:01:01.549Z,27.00
2018-09-10T11:03:30.172Z,27.10
2018-09-10T11:05:58.795Z,27.20
2018-09-10T11:08:27.154Z,27.40
2018-09-10T11:10:55.528Z,27.20
2018-09-10T11:13:23.988Z,27.10
2018-09-10T11:15:52.463Z,27.20
2018-09-10T11:18:20.833Z,27.30
2018-09-10T11:20:54.859Z,27.80
2018-09-10T11:23:23.265Z,28.30
2018-09-10T11:25:52.742Z,28.50
2018-09-10T11:28:21.096Z,27.90
2018-09-10T11:30:51.459Z,27.60
2018-09-10T11:33:20.039Z,27.30
2018-09-10T11:35:48.509Z,27.20
2018-09-10T11:38:16.877Z,26.80
2018-09-10T11:40:45.342Z,26.80
2018-09-10T11:43:13.756Z,27.20
2018-09-10T11:45:42.238Z,28.00
2018-09-10T11:48:10.775Z,28.20
2018-09-10T11:50:39.090Z,28.40
2018-09-10T11:53:07.506Z,28.40
2018-09-10T11:55:35.819Z,28.10
2018-09-10T11:58:04.125Z,27.90
2018-09-10T12:00:32.489Z,27.60
2018-09-10T12:03:00.856Z,27.50
2018-09-10T12:05:29.148Z,27.70
2018-09-10T12:07:57.554Z,27.60
2018-09-10T12:10:26.013Z,27.80
2018-09-10T12:12:54.411Z,27.60
2018-09-10T12:15:22.774Z,27.60
2018-09-10T12:17:51.171Z,27.60
2018-09-10T12:20:19.935Z,27.40
2018-09-10T12:22:48.391Z,27.60
2018-09-10T12:25:16.651Z,27.50
2018-09-10T12:27:45.005Z,27.30
2018-09-10T12:30:13.342Z,27.30
2018-09-10T12:32:41.615Z,27.40
2018-09-10T12:35:09.904Z,27.30
2018-09-10T12:37:38.279Z,27.30
2018-09-10T12:40:06.635Z,27.30
2018-09-10T12:42:34.966Z,27.30
2018-09-10T12:45:03.268Z,27.40
2018-09-10T12:47:31.641Z,27.00
2018-09-10T12:49:59.929Z,26.80
2018-09-10T12:52:28.230Z,26.70
2018-09-10T12:54:57.583Z,26.70
2018-09-10T12:57:34.244Z,26.60
2018-09-10T13:00:02.624Z,26.70
2018-09-10T13:02:31.001Z,26.80
2018-09-10T13:04:59.342Z,27.00
2018-09-10T13:07:27.698Z,27.10
2018-09-10T13:09:56.058Z,27.20
2018-09-10T13:12:24.420Z,26.90
2018-09-10T13:14:52.776Z,26.80
2018-09-10T13:17:21.164Z,26.60
2018-09-10T13:19:49.592Z,26.50
2018-09-10T13:22:17.980Z,26.30
2018-09-10T13:24:46.334Z,26.60
2018-09-10T13:27:14.723Z,26.50
2018-09-10T13:29:43.128Z,26.50
2018-09-10T13:32:11.531Z,26.40
2018-09-10T13:34:39.875Z,26.60
2018-09-10T13:37:08.283Z,26.70
2018-09-10T13:39:36.601Z,26.40
2018-09-10T13:42:05.917Z,26.30
2018-09-10T13:44:34.286Z,26.50
2018-09-10T13:47:02.792Z,26.40
2018-09-10T13:49:31.251Z,26.30
2018-09-10T13:51:59.582Z,26.10
2018-09-10T13:54:27.891Z,26.00
2018-09-10T13:56:56.328Z,25.90
2018-09-10T13:59:24.579Z,25.80
2018-09-10T14:01:52.942Z,25.80
2018-09-10T14:04:21.299Z,25.80
2018-09-10T14:06:49.972Z,25.80
2018-09-10T14:09:18.372Z,25.90
2018-09-10T14:11:47.660Z,25.80
2018-09-10T14:14:17.983Z,25.90
2018-09-10T14:16:46.337Z,26.00
2018-09-10T14:20:17.175Z,26.20
2018-09-10T14:22:45.488Z,26.20
2018-09-10T14:25:13.899Z,26.30
2018-09-10T14:27:42.229Z,26.40
2018-09-10T14:30:10.641Z,26.50
2018-09-10T14:32:39.051Z,26.50
2018-09-10T14:35:07.373Z,26.60
2018-09-10T14:37:35.649Z,26.50
2018-09-10T14:40:03.953Z,26.50
2018-09-10T14:42:32.326Z,26.50
2018-09-10T14:45:00.788Z,26.50
2018-09-10T14:47:29.184Z,26.40
2018-09-10T14:49:57.533Z,26.20
2018-09-10T14:52:25.857Z,26.10
2018-09-10T14:54:54.196Z,26.10
2018-09-10T14:57:22.494Z,26.20
2018-09-10T14:59:50.869Z,26.20
2018-09-10T15:02:19.409Z,26.00
2018-09-10T15:04:47.751Z,25.90
2018-09-10T15:07:16.146Z,25.90
2018-09-10T15:09:44.511Z,25.90
2018-09-10T15:12:12.906Z,25.90
2018-09-10T15:14:41.295Z,25.80
2018-09-10T15:17:09.913Z,25.70
2018-09-10T15:19:38.306Z,25.70
2018-09-10T15:22:06.626Z,25.70
2018-09-10T15:24:35.029Z,25.70
2018-09-10T15:27:03.339Z,25.50
2018-09-10T15:29:31.694Z,25.50
2018-09-10T15:32:00.007Z,25.40
2018-09-10T15:34:29.408Z,25.30
2018-09-10T15:36:57.692Z,25.20
2018-09-10T15:39:26.046Z,25.10
2018-09-10T15:41:54.324Z,24.90
2018-09-10T15:44:22.600Z,24.60
2018-09-10T15:46:50.926Z,24.40
2018-09-10T15:49:19.357Z,24.30
2018-09-10T15:51:47.663Z,24.10
2018-09-10T15:54:16.092Z,23.90
2018-09-10T15:56:44.419Z,23.60
2018-09-10T15:59:12.894Z,23.50
2018-09-10T16:01:41.189Z,23.30
2018-09-10T16:04:09.548Z,23.30
2018-09-10T16:06:37.817Z,23.30
2018-09-10T16:09:07.322Z,23.30
2018-09-10T16:11:35.734Z,23.30
2018-09-10T16:14:05.007Z,23.30
2018-09-10T16:16:33.275Z,23.30
2018-09-10T16:19:01.597Z,23.30
2018-09-10T16:21:29.922Z,23.30
2018-09-10T16:23:58.242Z,23.30
2018-09-10T16:26:26.623Z,23.30
2018-09-10T16:28:55.109Z,23.20
2018-09-10T16:31:23.478Z,23.30
2018-09-10T16:33:51.899Z,23.20
2018-09-10T16:36:20.305Z,23.20
2018-09-10T16:38:48.624Z,23.20
2018-09-10T16:41:17.946Z,23.20
2018-09-10T16:43:46.376Z,23.10
2018-09-10T16:46:14.745Z,23.00
2018-09-10T16:48:43.123Z,23.00
2018-09-10T16:51:11.421Z,22.90
2018-09-10T16:53:39.832Z,22.90
2018-09-10T16:56:08.181Z,22.80
2018-09-10T16:59:39.295Z,22.80
2018-09-10T17:02:07.668Z,22.70
2018-09-10T17:04:36.207Z,22.60
2018-09-10T17:07:04.668Z,22.40
2018-09-10T17:09:33.063Z,22.40
2018-09-10T17:12:01.361Z,22.30
2018-09-10T17:14:29.732Z,22.30
2018-09-10T17:16:58.360Z,22.20
2018-09-10T17:19:26.773Z,22.10
2018-09-10T17:21:55.116Z,22.00
2018-09-10T17:24:23.486Z,21.90
2018-09-10T17:26:51.907Z,21.80
2018-09-10T17:29:20.284Z,21.70
2018-09-10T17:31:48.543Z,21.60
2018-09-10T17:34:16.850Z,21.50
2018-09-10T17:36:45.116Z,21.40
2018-09-10T17:39:13.442Z,21.30
2018-09-10T17:41:41.823Z,21.20
2018-09-10T17:44:10.562Z,21.20
2018-09-10T17:46:38.889Z,21.10
2018-09-10T17:49:07.220Z,21.10
2018-09-10T17:51:35.480Z,21.10
2018-09-10T17:54:04.852Z,21.20
2018-09-10T17:56:33.180Z,21.20
2018-09-10T17:59:01.538Z,21.20
2018-09-10T18:01:34.121Z,21.30
2018-09-10T18:04:02.474Z,21.30
2018-09-10T18:06:30.861Z,21.30
2018-09-10T18:08:59.235Z,21.30
2018-09-10T18:11:27.570Z,21.30
2018-09-10T18:13:59.474Z,21.30
2018-09-10T18:16:28.870Z,21.30
2018-09-10T18:18:57.204Z,21.10
2018-09-10T18:21:26.641Z,21.10
2018-09-10T18:23:55.121Z,21.10
2018-09-10T18:26:23.690Z,21.00
2018-09-10T18:28:52.114Z,20.90
2018-09-10T18:31:20.415Z,20.90
2018-09-10T18:33:48.870Z,20.90
2018-09-10T18:36:18.394Z,20.90
2018-09-10T18:38:46.943Z,20.90
2018-09-10T18:41:15.340Z,20.80
2018-09-10T18:43:43.988Z,20.70
2018-09-10T18:46:15.362Z,20.70
2018-09-10T18:48:43.852Z,20.60
2018-09-10T18:51:12.393Z,20.50
2018-09-10T18:53:41.446Z,20.60
2018-09-10T19:01:01.420Z,20.50
2018-09-10T19:03:31.242Z,20.40
2018-09-10T19:05:59.687Z,20.40
2018-09-10T19:08:28.183Z,20.30
2018-09-10T19:10:57.318Z,20.30
2018-09-10T19:13:26.030Z,20.30
2018-09-10T19:15:54.610Z,20.20
2018-09-10T19:18:27.188Z,20.30
2018-09-10T19:20:56.913Z,20.30
2018-09-10T19:23:25.665Z,20.30
2018-09-10T19:25:55.651Z,20.30
2018-09-10T19:28:24.090Z,20.20
2018-09-10T19:30:52.495Z,20.20
2018-09-10T19:33:20.994Z,20.20
2018-09-10T19:35:49.671Z,20.10
2018-09-10T19:38:18.994Z,20.10
2018-09-10T19:40:47.496Z,20.10
2018-09-10T19:43:15.903Z,20.00
2018-09-10T19:45:44.518Z,20.00
2018-09-10T19:48:13.888Z,19.90
2018-09-10T19:50:42.360Z,19.90
2018-09-10T19:53:12.100Z,19.90
2018-09-10T19:55:42.081Z,19.90
2018-09-10T19:58:10.463Z,19.90
2018-09-10T20:00:38.900Z,19.90
2018-09-10T20:03:07.271Z,20.00
2018-09-10T20:05:35.535Z,20.00
2018-09-10T20:08:07.723Z,20.00
2018-09-10T20:10:36.544Z,19.90
2018-09-10T20:13:05.206Z,20.00
2018-09-10T20:15:33.608Z,20.00
2018-09-10T20:18:02.188Z,19.90
2018-09-10T20:20:31.061Z,19.90
2018-09-10T20:22:59.758Z,19.80
2018-09-10T20:25:29.014Z,19.70
2018-09-10T20:27:57.761Z,19.70
2018-09-10T20:30:26.262Z,19.60
2018-09-10T20:32:55.779Z,19.60
2018-09-10T20:35:25.505Z,19.70
2018-09-10T20:37:54.977Z,19.60
2018-09-10T20:40:24.375Z,19.60
2018-09-10T20:42:54.012Z,19.60
2018-09-10T20:45:23.817Z,19.50
2018-09-10T20:47:55.476Z,19.50
2018-09-10T20:50:23.928Z,19.40
2018-09-10T20:52:54.207Z,19.30
2018-09-10T20:55:23.202Z,19.20
2018-09-10T20:57:51.886Z,19.10
2018-09-10T21:00:20.973Z,19.00
2018-09-10T21:02:49.241Z,19.00
2018-09-10T21:05:17.572Z,19.00
2018-09-10T21:07:45.940Z,18.90
2018-09-10T21:10:14.547Z,18.90
2018-09-10T21:12:42.882Z,18.90
2018-09-10T21:15:11.191Z,18.90
2018-09-10T21:17:39.542Z,18.90
2018-09-10T21:20:07.839Z,18.90
2018-09-10T21:22:36.286Z,18.90
2018-09-10T21:25:04.694Z,18.90
2018-09-10T21:27:33.825Z,18.90
2018-09-10T21:30:02.297Z,18.90
2018-09-10T21:32:30.979Z,18.90
2018-09-10T21:34:59.285Z,18.90
2018-09-10T21:37:27.904Z,18.90
2018-09-10T21:39:56.303Z,18.90
2018-09-10T21:42:24.656Z,18.90
2018-09-10T21:44:53.008Z,18.90
2018-09-10T21:47:21.541Z,18.90
2018-09-10T21:49:49.797Z,18.90
2018-09-10T21:52:18.276Z,19.00
2018-09-10T21:54:46.829Z,19.10
2018-09-10T21:58:56.639Z,19.30
2018-09-10T22:01:25.248Z,19.30
2018-09-10T22:03:53.621Z,19.40
2018-09-10T22:06:22.288Z,19.30
2018-09-10T22:08:50.518Z,19.40
2018-09-10T22:11:18.907Z,19.30
2018-09-10T22:13:47.207Z,19.30
2018-09-10T22:16:15.537Z,19.30
2018-09-10T22:18:43.919Z,19.30
2018-09-10T22:21:12.396Z,19.40
2018-09-10T22:23:40.620Z,19.40
2018-09-10T22:26:08.984Z,19.30
2018-09-10T22:28:37.515Z,19.40
2018-09-10T22:31:05.867Z,19.40
2018-09-10T22:33:34.184Z,19.30
2018-09-10T22:36:02.560Z,19.30
2018-09-10T22:38:30.889Z,19.40
2018-09-10T22:40:59.223Z,19.30
2018-09-10T22:43:27.590Z,19.30
2018-09-10T22:45:56.600Z,19.30
2018-09-10T22:48:24.947Z,19.30
2018-09-10T22:50:53.285Z,19.30
2018-09-10T22:53:21.571Z,19.20
2018-09-10T22:55:49.875Z,19.20
2018-09-10T22:58:18.105Z,19.20
2018-09-10T23:00:46.379Z,19.20
2018-09-10T23:03:14.707Z,19.20
2018-09-10T23:05:43.101Z,19.10
2018-09-10T23:08:11.427Z,19.10
2018-09-10T23:10:39.768Z,19.10
2018-09-10T23:13:08.082Z,19.10
2018-09-10T23:15:36.410Z,19.10
2018-09-10T23:18:04.734Z,19.10
2018-09-10T23:20:33.026Z,19.10
2018-09-10T23:23:01.308Z,19.10
2018-09-10T23:25:29.584Z,19.00
2018-09-10T23:27:57.863Z,19.00
2018-09-10T23:30:26.605Z,19.00
2018-09-10T23:32:54.925Z,19.00
2018-09-10T23:35:23.229Z,18.90
2018-09-10T23:37:51.505Z,18.90
2018-09-10T23:40:19.784Z,18.80
2018-09-10T23:42:49.063Z,18.70
2018-09-10T23:45:17.342Z,18.70
2018-09-10T23:47:45.620Z,18.70
2018-09-10T23:50:13.890Z,18.60
2018-09-10T23:52:42.178Z,18.40
2018-09-10T23:55:10.554Z,18.30
2018-09-10T23:57:38.884Z,18.30
